createdAt,value
2022-11-02T00:00:30.331Z,983.34
2022-11-02T00:01:02.116Z,983.44
2022-11-02T00:01:34.332Z,983.44
2022-11-02T00:02:06.019Z,983.44
2022-11-02T00:02:37.982Z,983.44
2022-11-02T00:03:09.978Z,983.44
2022-11-02T00:03:41.974Z,983.44
2022-11-02T00:04:13.871Z,983.51
2022-11-02T00:04:45.943Z,983.51
2022-11-02T00:05:18.106Z,983.44
2022-11-02T00:05:49.962Z,983.44
2022-11-02T00:06:21.581Z,983.51
2022-11-02T00:06:53.692Z,983.51
2022-11-02T00:07:09.953Z,983.24
2022-11-02T00:07:41.713Z,983.24
2022-11-02T00:07:57.900Z,983.24
2022-11-02T00:08:29.574Z,983.24
2022-11-02T00:09:01.736Z,983.44
2022-11-02T00:09:17.802Z,983.44
2022-11-02T00:09:49.577Z,983.44
2022-11-02T00:10:33.931Z,983.61
2022-11-02T00:11:05.770Z,983.51
2022-11-02T00:11:37.804Z,983.51
2022-11-02T00:12:09.653Z,983.51
2022-11-02T00:12:41.636Z,983.51
2022-11-02T00:13:13.445Z,983.61
2022-11-02T00:13:45.574Z,983.61
2022-11-02T00:14:17.420Z,983.61
2022-11-02T00:14:49.653Z,983.61
2022-11-02T00:15:21.557Z,983.51
2022-11-02T00:15:53.392Z,983.51
2022-11-02T00:16:09.562Z,983.51
2022-11-02T00:16:53.223Z,983.51
2022-11-02T00:17:25.561Z,983.44
2022-11-02T00:17:57.287Z,983.44
2022-11-02T00:18:29.208Z,983.51
2022-11-02T00:19:01.378Z,983.51
2022-11-02T00:19:33.254Z,983.51
2022-11-02T00:20:05.792Z,983.44
2022-11-02T00:20:37.341Z,983.44
2022-11-02T00:21:09.215Z,983.44
2022-11-02T00:21:41.170Z,983.44
2022-11-02T00:22:12.975Z,983.61
2022-11-02T00:22:45.106Z,983.61
2022-11-02T00:23:17.155Z,983.44
2022-11-02T00:23:49.171Z,983.44
2022-11-02T00:24:20.898Z,983.44
2022-11-02T00:24:52.934Z,983.44
2022-11-02T00:25:25.345Z,983.44
2022-11-02T00:25:59.557Z,983.44
2022-11-02T00:26:28.930Z,983.61
2022-11-02T00:27:00.920Z,983.44
2022-11-02T00:27:32.779Z,983.44
2022-11-02T00:28:05.310Z,983.44
2022-11-02T00:28:36.875Z,983.44
2022-11-02T00:29:08.821Z,983.44
2022-11-02T00:29:40.819Z,983.44
2022-11-02T00:30:13.738Z,983.44
2022-11-02T00:30:44.706Z,983.44
2022-11-02T00:31:16.900Z,983.34
2022-11-02T00:31:48.846Z,983.34
2022-11-02T00:32:20.707Z,983.51
2022-11-02T00:32:52.589Z,983.51
2022-11-02T00:33:08.846Z,983.61
2022-11-02T00:33:52.622Z,983.61
2022-11-02T00:34:24.611Z,983.44
2022-11-02T00:34:56.622Z,983.44
2022-11-02T00:35:28.908Z,983.44
2022-11-02T00:36:00.569Z,983.61
2022-11-02T00:36:32.436Z,983.61
2022-11-02T00:37:05.304Z,983.61
2022-11-02T00:37:36.393Z,983.61
2022-11-02T00:38:08.562Z,983.51
2022-11-02T00:38:40.525Z,983.51
2022-11-02T00:39:12.434Z,983.71
2022-11-02T00:39:44.377Z,983.71
2022-11-02T00:40:21.695Z,983.61
2022-11-02T00:40:48.461Z,983.61
2022-11-02T00:41:20.313Z,983.51
2022-11-02T00:41:52.172Z,983.51
2022-11-02T00:42:24.329Z,983.61
2022-11-02T00:42:56.235Z,983.61
2022-11-02T00:43:28.417Z,983.61
2022-11-02T00:44:00.120Z,983.61
2022-11-02T00:44:32.232Z,983.61
2022-11-02T00:45:06.392Z,983.61
2022-11-02T00:45:36.375Z,983.61
2022-11-02T00:46:08.151Z,983.44
2022-11-02T00:46:24.207Z,983.44
2022-11-02T00:46:56.176Z,983.44
2022-11-02T00:47:40.111Z,983.61
2022-11-02T00:48:12.025Z,983.61
2022-11-02T00:48:43.956Z,983.61
2022-11-02T00:49:16.090Z,983.61
2022-11-02T00:49:48.053Z,983.61
2022-11-02T00:50:20.187Z,983.61
2022-11-02T00:50:51.863Z,983.61
2022-11-02T00:51:08.136Z,983.61
2022-11-02T00:51:51.794Z,983.61
2022-11-02T00:52:23.939Z,983.61
2022-11-02T00:52:55.844Z,983.61
2022-11-02T00:53:27.891Z,983.61
2022-11-02T00:53:59.686Z,983.71
2022-11-02T00:54:31.855Z,983.71
2022-11-02T00:55:04.775Z,983.61
2022-11-02T00:55:35.705Z,983.61
2022-11-02T00:56:07.803Z,983.71
2022-11-02T00:56:39.712Z,983.71
2022-11-02T00:57:11.753Z,983.91
2022-11-02T00:57:43.677Z,983.91
2022-11-02T00:58:15.791Z,983.61
2022-11-02T00:58:47.827Z,983.61
2022-11-02T00:59:19.485Z,983.61
2022-11-02T00:59:51.433Z,983.61
2022-11-02T01:00:08.875Z,983.61
2022-11-02T01:00:39.476Z,983.61
2022-11-02T01:00:55.840Z,983.61
2022-11-02T01:01:27.584Z,983.61
2022-11-02T01:01:59.624Z,983.61
2022-11-02T01:02:31.583Z,983.61
2022-11-02T01:03:04.161Z,983.51
2022-11-02T01:03:35.364Z,983.51
2022-11-02T01:04:07.470Z,983.61
2022-11-02T01:04:23.394Z,983.61
2022-11-02T01:04:55.266Z,983.61
2022-11-02T01:05:40.111Z,983.71
2022-11-02T01:06:11.240Z,983.71
2022-11-02T01:06:43.261Z,983.71
2022-11-02T01:07:15.266Z,983.81
2022-11-02T01:07:47.512Z,983.81
2022-11-02T01:08:19.242Z,983.81
2022-11-02T01:08:51.072Z,983.81
2022-11-02T01:09:23.374Z,983.81
2022-11-02T01:09:55.288Z,983.81
2022-11-02T01:10:27.188Z,983.71
2022-11-02T01:10:59.000Z,983.71
2022-11-02T01:11:31.091Z,983.61
2022-11-02T01:12:03.126Z,983.71
2022-11-02T01:12:35.033Z,983.71
2022-11-02T01:13:06.994Z,983.51
2022-11-02T01:13:39.004Z,983.51
2022-11-02T01:14:11.005Z,983.81
2022-11-02T01:14:42.859Z,983.81
2022-11-02T01:15:16.327Z,983.71
2022-11-02T01:15:46.950Z,983.71
2022-11-02T01:16:18.911Z,983.61
2022-11-02T01:16:50.758Z,983.61
2022-11-02T01:17:07.171Z,983.51
2022-11-02T01:17:39.012Z,983.51
2022-11-02T01:18:22.795Z,983.71
2022-11-02T01:18:54.831Z,983.71
2022-11-02T01:19:26.616Z,983.71
2022-11-02T01:19:58.742Z,983.71
2022-11-02T01:20:30.963Z,983.51
2022-11-02T01:21:03.202Z,983.61
2022-11-02T01:21:34.664Z,983.61
2022-11-02T01:22:06.508Z,983.61
2022-11-02T01:22:22.780Z,983.61
2022-11-02T01:22:54.512Z,983.61
2022-11-02T01:23:39.020Z,983.71
2022-11-02T01:24:10.561Z,983.71
2022-11-02T01:24:42.561Z,983.71
2022-11-02T01:25:14.970Z,983.61
2022-11-02T01:25:46.634Z,983.61
2022-11-02T01:26:18.555Z,983.51
2022-11-02T01:26:50.648Z,983.51
2022-11-02T01:27:06.549Z,983.61
2022-11-02T01:27:50.439Z,983.61
2022-11-02T01:28:22.442Z,983.61
2022-11-02T01:28:54.324Z,983.61
2022-11-02T01:29:26.317Z,983.61
2022-11-02T01:29:58.452Z,983.61
2022-11-02T01:30:30.665Z,983.61
2022-11-02T01:31:02.471Z,983.61
2022-11-02T01:31:34.245Z,983.61
2022-11-02T01:32:06.191Z,983.61
2022-11-02T01:32:38.438Z,983.61
2022-11-02T01:33:10.070Z,983.61
2022-11-02T01:33:42.041Z,983.61
2022-11-02T01:34:14.180Z,983.61
2022-11-02T01:34:46.178Z,983.61
2022-11-02T01:35:18.209Z,983.71
2022-11-02T01:35:50.134Z,983.71
2022-11-02T01:36:54.083Z,983.51
2022-11-02T01:37:25.917Z,983.61
2022-11-02T01:37:57.909Z,983.61
2022-11-02T01:38:29.944Z,983.51
2022-11-02T01:39:02.362Z,983.61
2022-11-02T01:39:33.864Z,983.61
2022-11-02T01:40:06.186Z,983.51
2022-11-02T01:40:38.156Z,983.51
2022-11-02T01:41:09.820Z,983.34
2022-11-02T01:41:41.757Z,983.34
2022-11-02T01:42:13.683Z,983.34
2022-11-02T01:42:45.758Z,983.34
2022-11-02T01:43:17.939Z,983.24
2022-11-02T01:43:49.592Z,983.24
2022-11-02T01:44:06.020Z,983.34
2022-11-02T01:44:49.724Z,983.34
2022-11-02T01:45:21.976Z,983.51
2022-11-02T01:45:53.742Z,983.51
2022-11-02T01:46:25.668Z,983.44
2022-11-02T01:46:57.544Z,983.44
2022-11-02T01:47:29.599Z,983.44
2022-11-02T01:48:02.542Z,983.24
2022-11-02T01:48:33.419Z,983.24
2022-11-02T01:49:05.902Z,983.44
2022-11-02T01:49:21.494Z,983.44
2022-11-02T01:50:06.073Z,983.34
2022-11-02T01:50:37.735Z,983.34
2022-11-02T01:51:09.303Z,983.61
2022-11-02T01:51:41.491Z,983.61
2022-11-02T01:52:13.490Z,983.34
2022-11-02T01:52:45.361Z,983.34
2022-11-02T01:53:17.382Z,983.34
2022-11-02T01:53:49.272Z,983.34
2022-11-02T01:54:21.226Z,983.44
2022-11-02T01:54:53.231Z,983.44
2022-11-02T01:55:25.384Z,983.34
2022-11-02T01:55:57.299Z,983.34
2022-11-02T01:56:29.213Z,983.51
2022-11-02T01:57:01.646Z,983.34
2022-11-02T01:57:33.021Z,983.34
2022-11-02T01:58:05.433Z,983.44
2022-11-02T01:58:21.203Z,983.44
2022-11-02T01:58:53.029Z,983.44
2022-11-02T01:59:37.227Z,983.24
2022-11-02T02:00:10.513Z,983.51
2022-11-02T02:00:41.012Z,983.51
2022-11-02T02:01:13.039Z,983.34
2022-11-02T02:01:45.271Z,983.34
2022-11-02T02:02:17.166Z,983.34
2022-11-02T02:02:48.933Z,983.34
2022-11-02T02:03:05.414Z,983.34
2022-11-02T02:03:48.744Z,983.34
2022-11-02T02:04:20.990Z,983.34
2022-11-02T02:04:52.694Z,983.34
2022-11-02T02:05:25.002Z,983.34
2022-11-02T02:05:56.947Z,983.34
2022-11-02T02:06:28.870Z,983.24
2022-11-02T02:07:00.699Z,983.03
2022-11-02T02:07:32.712Z,983.03
2022-11-02T02:08:05.439Z,983.24
2022-11-02T02:08:36.748Z,983.24
2022-11-02T02:09:08.779Z,983.24
2022-11-02T02:09:40.684Z,983.24
2022-11-02T02:10:12.721Z,983.24
2022-11-02T02:10:45.286Z,983.24
2022-11-02T02:11:16.560Z,983.24
2022-11-02T02:11:48.462Z,983.24
2022-11-02T02:12:20.593Z,983.34
2022-11-02T02:12:52.595Z,983.34
2022-11-02T02:13:24.432Z,983.24
2022-11-02T02:13:56.368Z,983.24
2022-11-02T02:14:28.569Z,983.24
2022-11-02T02:15:01.197Z,983.13
2022-11-02T02:15:32.382Z,983.13
2022-11-02T02:16:04.787Z,983.13
2022-11-02T02:16:21.723Z,983.13
2022-11-02T02:16:52.164Z,983.13
2022-11-02T02:17:36.395Z,983.13
2022-11-02T02:18:08.285Z,983.24
2022-11-02T02:18:40.152Z,983.24
2022-11-02T02:19:12.242Z,982.93
2022-11-02T02:19:44.358Z,982.93
2022-11-02T02:20:16.939Z,983.03
2022-11-02T02:20:48.241Z,983.03
2022-11-02T02:21:04.839Z,983.03
2022-11-02T02:21:48.214Z,983.03
2022-11-02T02:22:20.154Z,982.93
2022-11-02T02:22:51.953Z,982.93
2022-11-02T02:23:24.038Z,983.13
2022-11-02T02:23:56.110Z,983.13
2022-11-02T02:24:28.142Z,983.03
2022-11-02T02:24:59.908Z,983.03
2022-11-02T02:25:32.222Z,983.03
2022-11-02T02:26:04.630Z,983.13
2022-11-02T02:26:36.094Z,983.13
2022-11-02T02:27:07.876Z,982.93
2022-11-02T02:27:40.170Z,982.93
2022-11-02T02:28:12.456Z,983.03
2022-11-02T02:28:44.007Z,983.03
2022-11-02T02:29:15.747Z,983.03
2022-11-02T02:29:48.042Z,983.03
2022-11-02T02:30:20.301Z,983.03
2022-11-02T02:30:51.793Z,983.03
2022-11-02T02:31:23.636Z,983.03
2022-11-02T02:31:55.712Z,983.03
2022-11-02T02:32:27.839Z,983.03
2022-11-02T02:32:59.729Z,983.03
2022-11-02T02:33:31.530Z,982.93
2022-11-02T02:34:04.228Z,983.03
2022-11-02T02:34:19.654Z,983.03
2022-11-02T02:34:51.545Z,983.03
2022-11-02T02:35:35.846Z,982.93
2022-11-02T02:36:07.507Z,982.83
2022-11-02T02:36:39.489Z,982.83
2022-11-02T02:37:11.508Z,983.03
2022-11-02T02:37:43.388Z,983.03
2022-11-02T02:38:15.458Z,983.03
2022-11-02T02:38:47.635Z,983.03
2022-11-02T02:39:04.198Z,983.03
2022-11-02T02:39:47.691Z,983.03
2022-11-02T02:40:19.591Z,982.83
2022-11-02T02:40:51.343Z,982.83
2022-11-02T02:41:23.309Z,983.03
2022-11-02T02:41:56.989Z,983.03
2022-11-02T02:42:27.421Z,983.03
2022-11-02T02:42:59.131Z,983.03
2022-11-02T02:43:31.246Z,983.13
2022-11-02T02:44:04.225Z,983.03
2022-11-02T02:44:35.503Z,983.03
2022-11-02T02:45:08.332Z,983.13
2022-11-02T02:45:39.129Z,983.13
2022-11-02T02:46:11.073Z,983.13
2022-11-02T02:46:43.283Z,983.13
2022-11-02T02:47:15.100Z,982.93
2022-11-02T02:47:47.093Z,982.93
2022-11-02T02:48:04.608Z,982.93
2022-11-02T02:48:34.990Z,982.93
2022-11-02T02:48:51.181Z,982.93
2022-11-02T02:49:22.898Z,983.03
2022-11-02T02:49:55.017Z,983.03
2022-11-02T02:50:29.739Z,983.03
2022-11-02T02:50:58.951Z,983.03
2022-11-02T02:51:31.036Z,983.03
2022-11-02T02:52:03.937Z,983.13
2022-11-02T02:52:19.019Z,983.13
2022-11-02T02:52:50.821Z,983.13
2022-11-02T02:53:34.918Z,983.03
2022-11-02T02:54:06.746Z,983.03
2022-11-02T02:54:38.807Z,983.03
2022-11-02T02:55:10.944Z,982.93
2022-11-02T02:55:42.714Z,982.93
2022-11-02T02:56:14.586Z,982.93
2022-11-02T02:57:18.833Z,982.63
2022-11-02T02:57:50.715Z,982.63
2022-11-02T02:58:22.394Z,983.03
2022-11-02T02:58:54.607Z,983.03
2022-11-02T02:59:26.752Z,982.93
2022-11-02T02:59:58.672Z,982.93
2022-11-02T03:00:34.053Z,982.83
2022-11-02T03:01:02.940Z,982.63
2022-11-02T03:01:18.960Z,982.63
2022-11-02T03:02:03.478Z,983.03
2022-11-02T03:02:34.766Z,983.03
2022-11-02T03:03:06.346Z,982.83
2022-11-02T03:03:38.436Z,982.83
2022-11-02T03:04:10.434Z,982.83
2022-11-02T03:04:42.415Z,982.83
2022-11-02T03:05:14.515Z,982.83
2022-11-02T03:05:46.191Z,982.83
2022-11-02T03:06:03.370Z,983.13
2022-11-02T03:06:34.318Z,983.13
2022-11-02T03:06:50.302Z,983.13
2022-11-02T03:07:22.295Z,982.93
2022-11-02T03:07:54.484Z,982.93
2022-11-02T03:08:10.336Z,982.83
2022-11-02T03:08:42.161Z,982.83
2022-11-02T03:09:31.190Z,983.13
2022-11-02T03:09:58.100Z,983.13
2022-11-02T03:10:30.265Z,982.93
2022-11-02T03:11:02.644Z,983.03
2022-11-02T03:11:34.075Z,983.03
2022-11-02T03:12:05.910Z,982.93
2022-11-02T03:12:37.974Z,982.93
2022-11-02T03:13:10.003Z,982.93
2022-11-02T03:13:42.020Z,982.93
2022-11-02T03:14:13.914Z,982.53
2022-11-02T03:14:46.116Z,982.53
2022-11-02T03:15:18.531Z,982.93
2022-11-02T03:15:49.847Z,982.93
2022-11-02T03:16:21.969Z,982.93
2022-11-02T03:16:53.905Z,982.93
2022-11-02T03:17:25.774Z,982.83
2022-11-02T03:17:57.990Z,982.83
2022-11-02T03:18:29.777Z,982.93
2022-11-02T03:19:01.866Z,982.83
2022-11-02T03:19:18.064Z,982.83
2022-11-02T03:20:02.516Z,982.83
2022-11-02T03:20:33.716Z,982.83
2022-11-02T03:21:05.693Z,983.13
2022-11-02T03:21:37.601Z,983.13
2022-11-02T03:22:09.646Z,982.93
2022-11-02T03:22:41.675Z,982.93
2022-11-02T03:23:13.460Z,982.93
2022-11-02T03:23:45.813Z,982.93
2022-11-02T03:24:17.708Z,983.24
2022-11-02T03:24:49.564Z,983.24
2022-11-02T03:25:26.807Z,982.93
2022-11-02T03:25:53.491Z,982.93
2022-11-02T03:26:25.507Z,982.93
2022-11-02T03:26:57.582Z,982.93
2022-11-02T03:27:29.252Z,982.93
2022-11-02T03:28:01.821Z,982.93
2022-11-02T03:28:33.502Z,982.93
2022-11-02T03:29:05.661Z,983.24
2022-11-02T03:29:37.341Z,983.24
2022-11-02T03:30:10.377Z,982.93
2022-11-02T03:30:41.156Z,982.93
2022-11-02T03:31:13.277Z,983.13
2022-11-02T03:31:45.249Z,983.13
2022-11-02T03:32:01.438Z,982.93
2022-11-02T03:32:45.221Z,982.93
2022-11-02T03:33:01.486Z,983.13
2022-11-02T03:33:45.378Z,983.13
2022-11-02T03:34:17.264Z,983.24
2022-11-02T03:34:49.106Z,983.24
2022-11-02T03:35:21.267Z,983.03
2022-11-02T03:35:52.943Z,983.03
2022-11-02T03:36:25.264Z,983.03
2022-11-02T03:36:57.077Z,983.03
2022-11-02T03:37:28.888Z,982.93
2022-11-02T03:38:01.659Z,983.03
2022-11-02T03:38:32.868Z,983.03
2022-11-02T03:38:49.042Z,983.03
2022-11-02T03:39:21.021Z,983.13
2022-11-02T03:40:05.161Z,983.13
2022-11-02T03:40:36.937Z,983.13
2022-11-02T03:41:08.792Z,983.24
2022-11-02T03:41:40.677Z,983.24
2022-11-02T03:42:12.802Z,983.13
2022-11-02T03:42:44.880Z,983.13
2022-11-02T03:43:16.709Z,983.24
2022-11-02T03:43:32.907Z,983.24
2022-11-02T03:44:16.596Z,983.03
2022-11-02T03:44:32.907Z,983.03
2022-11-02T03:45:22.512Z,983.24
2022-11-02T03:45:48.796Z,983.24
2022-11-02T03:46:20.488Z,983.03
2022-11-02T03:46:52.449Z,983.03
2022-11-02T03:47:24.773Z,983.03
2022-11-02T03:47:56.892Z,983.03
2022-11-02T03:48:28.582Z,983.24
2022-11-02T03:49:03.435Z,983.24
2022-11-02T03:49:32.599Z,983.24
2022-11-02T03:50:05.497Z,983.34
2022-11-02T03:50:36.306Z,983.34
2022-11-02T03:51:08.540Z,982.93
2022-11-02T03:51:40.308Z,982.93
2022-11-02T03:52:12.335Z,983.24
2022-11-02T03:52:44.237Z,983.24
2022-11-02T03:53:00.430Z,983.24
2022-11-02T03:53:44.192Z,983.24
2022-11-02T03:54:16.341Z,983.24
2022-11-02T03:54:48.488Z,983.24
2022-11-02T03:55:27.744Z,983.13
2022-11-02T03:55:52.213Z,983.13
2022-11-02T03:56:24.260Z,983.34
2022-11-02T03:56:56.246Z,983.34
2022-11-02T03:57:28.106Z,983.13
2022-11-02T03:58:00.273Z,983.13
2022-11-02T03:58:32.158Z,983.13
2022-11-02T03:59:04.685Z,983.34
2022-11-02T03:59:36.002Z,983.34
2022-11-02T04:00:09.006Z,983.13
2022-11-02T04:00:40.114Z,983.13
2022-11-02T04:01:12.039Z,983.24
2022-11-02T04:01:44.031Z,983.24
2022-11-02T04:02:16.176Z,983.13
2022-11-02T04:02:32.250Z,983.13
2022-11-02T04:03:16.067Z,983.24
2022-11-02T04:03:48.204Z,983.24
2022-11-02T04:04:19.790Z,983.24
2022-11-02T04:04:51.840Z,983.24
2022-11-02T04:05:31.734Z,983.34
2022-11-02T04:05:55.871Z,983.34
2022-11-02T04:06:27.801Z,983.13
2022-11-02T04:06:59.775Z,983.13
2022-11-02T04:07:15.882Z,983.13
2022-11-02T04:07:49.960Z,983.13
2022-11-02T04:08:31.744Z,983.13
2022-11-02T04:09:04.322Z,983.24
2022-11-02T04:09:35.706Z,983.24
2022-11-02T04:10:07.854Z,983.34
2022-11-02T04:10:39.759Z,983.34
2022-11-02T04:11:11.420Z,983.34
2022-11-02T04:11:43.552Z,983.34
2022-11-02T04:12:15.691Z,983.34
2022-11-02T04:12:47.610Z,983.34
2022-11-02T04:13:19.400Z,983.13
2022-11-02T04:13:51.480Z,983.13
2022-11-02T04:14:23.365Z,982.93
2022-11-02T04:14:55.552Z,982.93
2022-11-02T04:15:27.801Z,983.34
2022-11-02T04:15:59.344Z,983.34
2022-11-02T04:16:31.578Z,983.24
2022-11-02T04:17:03.903Z,983.34
2022-11-02T04:17:35.244Z,983.34
2022-11-02T04:18:07.710Z,983.51
2022-11-02T04:18:39.363Z,983.51
2022-11-02T04:19:11.247Z,983.24
2022-11-02T04:19:45.581Z,983.24
2022-11-02T04:19:59.219Z,983.24
2022-11-02T04:20:31.497Z,983.24
2022-11-02T04:20:47.292Z,983.24
2022-11-02T04:21:19.203Z,983.24
2022-11-02T04:21:50.988Z,983.24
2022-11-02T04:22:23.054Z,983.13
2022-11-02T04:22:55.334Z,983.13
2022-11-02T04:23:27.166Z,983.34
2022-11-02T04:23:59.107Z,983.34
2022-11-02T04:24:15.169Z,983.34
2022-11-02T04:24:47.182Z,983.34
2022-11-02T04:25:36.433Z,983.44
2022-11-02T04:26:03.953Z,983.34
2022-11-02T04:26:34.968Z,983.34
2022-11-02T04:27:07.169Z,983.51
2022-11-02T04:27:39.034Z,983.51
2022-11-02T04:28:10.728Z,983.34
2022-11-02T04:28:42.806Z,983.34
2022-11-02T04:28:58.919Z,983.34
2022-11-02T04:29:42.837Z,983.44
2022-11-02T04:30:16.222Z,983.51
2022-11-02T04:30:46.950Z,983.51
2022-11-02T04:31:18.919Z,983.51
2022-11-02T04:31:50.680Z,983.51
2022-11-02T04:32:22.856Z,983.51
2022-11-02T04:32:54.861Z,983.51
2022-11-02T04:33:26.563Z,983.34
2022-11-02T04:33:58.813Z,983.34
2022-11-02T04:34:30.756Z,983.44
2022-11-02T04:35:03.207Z,983.24
2022-11-02T04:35:34.670Z,983.24
2022-11-02T04:36:06.601Z,983.34
2022-11-02T04:36:38.678Z,983.34
2022-11-02T04:37:10.505Z,983.44
2022-11-02T04:37:42.463Z,983.44
2022-11-02T04:37:58.732Z,983.44
2022-11-02T04:38:30.355Z,983.44
2022-11-02T04:38:46.662Z,983.44
2022-11-02T04:39:26.219Z,983.34
2022-11-02T04:39:50.367Z,983.34
2022-11-02T04:40:27.652Z,983.24
2022-11-02T04:40:54.518Z,983.24
2022-11-02T04:41:26.112Z,983.34
2022-11-02T04:41:58.383Z,983.34
2022-11-02T04:42:14.365Z,983.44
2022-11-02T04:42:46.257Z,983.44
2022-11-02T04:43:30.256Z,983.34
2022-11-02T04:44:02.325Z,983.24
2022-11-02T04:44:34.263Z,983.24
2022-11-02T04:45:06.950Z,983.34
2022-11-02T04:45:38.230Z,983.34
2022-11-02T04:46:10.057Z,983.24
2022-11-02T04:46:42.027Z,983.24
2022-11-02T04:46:58.536Z,983.24
2022-11-02T04:47:42.164Z,983.44
2022-11-02T04:48:13.985Z,983.51
2022-11-02T04:48:46.044Z,983.51
2022-11-02T04:49:18.049Z,983.44
2022-11-02T04:49:50.028Z,983.44
2022-11-02T04:50:22.243Z,983.24
2022-11-02T04:50:53.977Z,983.24
2022-11-02T04:51:26.002Z,983.24
2022-11-02T04:51:58.137Z,983.24
2022-11-02T04:52:29.908Z,983.44
2022-11-02T04:53:02.013Z,983.44
2022-11-02T04:53:34.008Z,983.44
2022-11-02T04:54:05.860Z,983.44
2022-11-02T04:54:37.783Z,983.44
2022-11-02T04:55:09.952Z,983.34
2022-11-02T04:55:41.544Z,983.34
2022-11-02T04:56:13.693Z,983.44
2022-11-02T04:56:45.905Z,983.44
2022-11-02T04:57:17.633Z,983.51
2022-11-02T04:57:49.615Z,983.51
2022-11-02T04:58:21.539Z,983.61
2022-11-02T04:58:53.529Z,983.61
2022-11-02T04:59:25.685Z,983.44
2022-11-02T04:59:57.825Z,983.44
2022-11-02T05:00:14.968Z,983.44
2022-11-02T05:00:45.526Z,983.44
2022-11-02T05:01:29.620Z,983.51
2022-11-02T05:02:01.973Z,983.51
2022-11-02T05:02:33.461Z,983.51
2022-11-02T05:03:08.162Z,983.51
2022-11-02T05:03:37.591Z,983.51
2022-11-02T05:04:09.167Z,983.51
2022-11-02T05:04:41.334Z,983.51
2022-11-02T05:04:57.699Z,983.51
2022-11-02T05:05:41.431Z,983.61
2022-11-02T05:06:13.430Z,983.44
2022-11-02T05:06:45.217Z,983.44
2022-11-02T05:07:17.444Z,983.51
2022-11-02T05:07:49.286Z,983.51
2022-11-02T05:08:21.227Z,983.61
2022-11-02T05:08:53.074Z,983.61
2022-11-02T05:09:25.404Z,983.51
2022-11-02T05:09:57.375Z,983.51
2022-11-02T05:10:29.315Z,983.61
2022-11-02T05:11:01.281Z,983.71
2022-11-02T05:11:32.922Z,983.71
2022-11-02T05:12:05.485Z,983.91
2022-11-02T05:12:37.180Z,983.91
2022-11-02T05:13:08.946Z,983.71
2022-11-02T05:13:41.031Z,983.71
2022-11-02T05:13:57.336Z,983.71
2022-11-02T05:14:29.016Z,983.61
2022-11-02T05:14:45.027Z,983.61
2022-11-02T05:15:17.953Z,983.61
2022-11-02T05:15:48.981Z,983.61
2022-11-02T05:16:20.862Z,983.71
2022-11-02T05:16:52.972Z,983.71
2022-11-02T05:17:25.021Z,983.81
2022-11-02T05:17:56.752Z,983.81
2022-11-02T05:18:28.838Z,983.71
2022-11-02T05:19:01.004Z,983.71
2022-11-02T05:19:32.598Z,983.71
2022-11-02T05:20:05.730Z,983.51
2022-11-02T05:20:36.738Z,983.51
2022-11-02T05:21:08.895Z,983.34
2022-11-02T05:21:40.770Z,983.34
2022-11-02T05:22:12.560Z,983.61
2022-11-02T05:22:44.642Z,983.61
2022-11-02T05:23:16.755Z,983.61
2022-11-02T05:23:48.670Z,983.61
2022-11-02T05:24:20.416Z,983.71
2022-11-02T05:24:52.644Z,983.71
2022-11-02T05:25:24.827Z,983.81
2022-11-02T05:25:56.576Z,983.81
2022-11-02T05:26:28.770Z,983.61
2022-11-02T05:26:44.518Z,983.61
2022-11-02T05:27:16.477Z,983.71
2022-11-02T05:28:00.483Z,983.71
2022-11-02T05:28:32.391Z,983.71
2022-11-02T05:29:04.931Z,983.61
2022-11-02T05:29:36.228Z,983.61
2022-11-02T05:30:09.601Z,983.51
2022-11-02T05:30:40.291Z,983.51
2022-11-02T05:31:12.380Z,983.61
2022-11-02T05:31:28.461Z,983.61
2022-11-02T05:32:12.158Z,983.71
2022-11-02T05:32:44.315Z,983.71
2022-11-02T05:33:16.217Z,983.81
2022-11-02T05:33:48.287Z,983.81
2022-11-02T05:34:20.085Z,983.71
2022-11-02T05:34:52.275Z,983.71
2022-11-02T05:35:24.331Z,983.81
2022-11-02T05:35:56.160Z,983.81
2022-11-02T05:36:12.082Z,984.02
2022-11-02T05:36:44.034Z,984.02
2022-11-02T05:37:28.129Z,983.81
2022-11-02T05:37:59.709Z,983.81
2022-11-02T05:38:32.195Z,983.81
2022-11-02T05:39:04.639Z,983.71
2022-11-02T05:39:35.909Z,983.71
2022-11-02T05:40:08.191Z,983.81
2022-11-02T05:40:39.870Z,983.81
2022-11-02T05:40:56.451Z,983.81
2022-11-02T05:41:39.872Z,983.81
2022-11-02T05:42:11.809Z,983.71
2022-11-02T05:42:43.916Z,983.71
2022-11-02T05:43:15.759Z,983.91
2022-11-02T05:43:47.931Z,983.91
2022-11-02T05:44:24.863Z,983.71
2022-11-02T05:44:51.673Z,983.71
2022-11-02T05:45:24.721Z,983.81
2022-11-02T05:45:55.680Z,983.81
2022-11-02T05:46:27.836Z,983.81
2022-11-02T05:46:59.662Z,983.81
2022-11-02T05:47:31.627Z,983.81
2022-11-02T05:48:04.423Z,983.71
2022-11-02T05:48:35.618Z,983.71
2022-11-02T05:49:07.640Z,983.71
2022-11-02T05:49:39.542Z,983.71
2022-11-02T05:49:55.680Z,983.71
2022-11-02T05:50:27.912Z,983.91
2022-11-02T05:50:43.603Z,983.91
2022-11-02T05:51:15.480Z,983.61
2022-11-02T05:51:47.582Z,983.61
2022-11-02T05:52:22.333Z,984.02
2022-11-02T05:52:51.224Z,984.02
2022-11-02T05:53:23.357Z,983.91
2022-11-02T05:53:55.280Z,983.91
2022-11-02T05:54:11.406Z,983.81
2022-11-02T05:54:43.196Z,983.81
2022-11-02T05:55:27.673Z,983.71
2022-11-02T05:55:59.298Z,983.71
2022-11-02T05:56:31.212Z,984.02
2022-11-02T05:57:03.264Z,983.61
2022-11-02T05:57:35.292Z,983.61
2022-11-02T05:58:07.305Z,983.71
2022-11-02T05:58:39.224Z,983.71
2022-11-02T05:58:55.301Z,983.71
2022-11-02T05:59:39.107Z,983.81
2022-11-02T06:00:12.028Z,983.91
2022-11-02T06:00:43.048Z,983.91
2022-11-02T06:01:15.021Z,983.81
2022-11-02T06:01:47.312Z,983.81
2022-11-02T06:02:20.862Z,984.02
2022-11-02T06:02:50.844Z,984.02
2022-11-02T06:03:22.873Z,983.71
2022-11-02T06:03:55.044Z,983.71
2022-11-02T06:04:27.091Z,983.81
2022-11-02T06:04:58.881Z,983.81
2022-11-02T06:05:31.134Z,984.02
2022-11-02T06:06:03.334Z,983.51
2022-11-02T06:06:35.058Z,983.51
2022-11-02T06:07:06.521Z,983.51
2022-11-02T06:07:38.835Z,983.51
2022-11-02T06:07:54.917Z,983.51
2022-11-02T06:08:26.776Z,983.91
2022-11-02T06:08:42.609Z,983.91
2022-11-02T06:09:14.602Z,983.81
2022-11-02T06:09:46.650Z,983.81
2022-11-02T06:10:18.792Z,983.61
2022-11-02T06:10:50.681Z,983.61
2022-11-02T06:11:22.517Z,983.81
2022-11-02T06:11:54.478Z,983.81
2022-11-02T06:12:10.689Z,983.81
2022-11-02T06:12:42.551Z,983.81
2022-11-02T06:13:26.734Z,983.81
2022-11-02T06:13:58.655Z,983.81
2022-11-02T06:14:30.537Z,983.91
2022-11-02T06:15:05.865Z,983.81
2022-11-02T06:15:34.891Z,983.81
2022-11-02T06:16:06.495Z,983.91
2022-11-02T06:16:38.737Z,983.91
2022-11-02T06:16:54.735Z,983.91
2022-11-02T06:17:38.686Z,983.81
2022-11-02T06:18:10.626Z,984.02
2022-11-02T06:18:42.367Z,984.02
2022-11-02T06:19:46.538Z,983.81
2022-11-02T06:20:18.670Z,984.02
2022-11-02T06:20:50.220Z,984.02
2022-11-02T06:21:22.331Z,984.02
2022-11-02T06:21:54.461Z,984.02
2022-11-02T06:22:26.482Z,984.02
2022-11-02T06:22:58.338Z,984.02
2022-11-02T06:23:30.265Z,984.12
2022-11-02T06:24:02.679Z,984.02
2022-11-02T06:24:34.312Z,984.02
2022-11-02T06:25:06.489Z,984.12
2022-11-02T06:25:38.309Z,984.12
2022-11-02T06:25:54.486Z,984.12
2022-11-02T06:26:26.255Z,984.22
2022-11-02T06:26:42.154Z,984.22
2022-11-02T06:27:14.099Z,983.91
2022-11-02T06:27:46.183Z,983.91
2022-11-02T06:28:18.114Z,983.91
2022-11-02T06:28:53.384Z,983.91
2022-11-02T06:29:21.774Z,984.12
2022-11-02T06:29:53.979Z,984.12
2022-11-02T06:30:11.518Z,983.91
2022-11-02T06:30:41.962Z,983.91
2022-11-02T06:31:26.152Z,984.12
2022-11-02T06:31:57.844Z,984.12
2022-11-02T06:32:30.123Z,984.22